createdAt,value
2023-02-14T17:58:29.597Z,17.27
2023-02-14T18:01:34.600Z,22.37
2023-02-14T18:04:38.428Z,29.02
2023-02-14T18:07:41.431Z,26.25
2023-02-14T18:11:06.638Z,20.02
2023-02-14T18:14:10.527Z,19.87
2023-02-14T18:17:14.472Z,19.10
2023-02-14T18:20:37.635Z,18.80
2023-02-14T18:23:43.668Z,19.80
2023-02-14T18:26:47.163Z,22.35
2023-02-14T18:29:52.899Z,22.10
2023-02-14T18:32:56.296Z,19.70
2023-02-14T18:36:09.003Z,19.90
2023-02-14T18:39:12.336Z,19.30
2023-02-14T18:42:17.866Z,17.35
2023-02-14T18:45:20.955Z,17.37
2023-02-14T18:48:45.014Z,16.23
2023-02-14T18:51:49.282Z,17.35
2023-02-14T18:55:22.401Z,15.57
2023-02-14T18:58:26.015Z,14.48
2023-02-14T19:01:31.821Z,15.70
2023-02-14T19:04:35.389Z,14.05
2023-02-14T19:07:38.584Z,13.98
2023-02-14T19:10:41.584Z,14.63
2023-02-14T19:13:49.966Z,12.52
2023-02-14T19:16:55.417Z,13.25
2023-02-14T19:19:59.830Z,13.13
2023-02-14T19:23:03.833Z,14.18
2023-02-14T19:26:11.685Z,11.98
2023-02-14T19:29:18.027Z,14.98
2023-02-14T19:32:23.153Z,15.98
2023-02-14T19:35:26.853Z,15.20
2023-02-14T19:38:30.493Z,18.17
2023-02-14T19:41:36.746Z,15.88
2023-02-14T19:44:40.477Z,14.68
2023-02-14T19:47:47.417Z,14.00
2023-02-14T19:50:52.657Z,13.05
2023-02-14T19:53:58.169Z,13.13
2023-02-14T19:57:02.993Z,12.37
2023-02-14T20:00:08.782Z,13.18
2023-02-14T20:03:14.743Z,12.50
2023-02-14T20:06:18.586Z,12.65
2023-02-14T20:09:23.573Z,10.93
2023-02-14T20:12:27.291Z,13.07
2023-02-14T20:15:31.238Z,11.95
2023-02-14T20:18:35.048Z,11.57
2023-02-14T20:21:40.477Z,11.93
2023-02-14T20:24:44.249Z,12.37
2023-02-14T20:27:47.767Z,11.55
2023-02-14T20:30:52.121Z,13.65
2023-02-14T20:33:56.844Z,20.70
2023-02-14T20:37:00.297Z,21.55
2023-02-14T20:40:03.891Z,18.00
2023-02-14T20:43:08.607Z,17.12
2023-02-14T20:46:12.869Z,13.13
2023-02-14T20:49:16.739Z,13.55
2023-02-14T20:52:20.342Z,13.30
2023-02-14T20:55:24.203Z,13.45
2023-02-14T20:58:30.947Z,15.35
2023-02-14T21:01:34.538Z,13.75
2023-02-14T21:04:37.922Z,12.15
2023-02-14T21:07:41.357Z,12.10
2023-02-14T21:10:44.438Z,11.00
2023-02-14T21:13:48.339Z,11.43
2023-02-14T21:16:51.447Z,11.18
2023-02-14T21:19:55.862Z,12.15
2023-02-14T21:22:59.184Z,12.60
2023-02-14T21:26:02.913Z,11.68
2023-02-14T21:29:07.521Z,15.48
2023-02-14T21:32:12.084Z,11.88
2023-02-14T21:35:15.691Z,13.10
2023-02-14T21:38:19.331Z,13.13
2023-02-14T21:41:24.720Z,13.73
2023-02-14T21:44:48.146Z,12.52
2023-02-14T21:48:09.776Z,11.20
2023-02-14T21:51:13.893Z,10.93
2023-02-14T21:54:17.695Z,11.80
2023-02-14T21:57:21.108Z,11.52
2023-02-14T22:00:26.159Z,11.10
2023-02-14T22:03:29.548Z,11.75
2023-02-14T22:06:36.751Z,10.23
2023-02-14T22:09:39.875Z,11.63
2023-02-14T22:12:42.582Z,12.18
2023-02-14T22:15:45.733Z,11.65
2023-02-14T22:18:49.047Z,12.02
2023-02-14T22:21:52.464Z,12.18
2023-02-14T22:24:55.247Z,13.02
2023-02-14T22:27:58.648Z,11.27
2023-02-14T22:31:01.898Z,13.70
2023-02-14T22:34:06.461Z,13.93
2023-02-14T22:37:10.135Z,13.07
2023-02-14T22:40:13.309Z,11.68
2023-02-14T22:43:16.643Z,12.27
2023-02-14T22:46:28.120Z,11.55
2023-02-14T22:49:30.926Z,12.93
2023-02-14T22:52:34.958Z,15.10
2023-02-14T22:55:37.737Z,14.75
2023-02-14T22:58:41.008Z,13.52
2023-02-14T23:01:44.192Z,12.75
2023-02-14T23:04:47.473Z,14.13
2023-02-14T23:07:50.241Z,12.45
2023-02-14T23:10:53.338Z,11.38
2023-02-14T23:14:15.785Z,11.55
2023-02-14T23:17:18.870Z,10.45
2023-02-14T23:20:40.376Z,9.90
2023-02-14T23:23:43.432Z,9.18
2023-02-14T23:26:46.806Z,10.95
2023-02-14T23:29:50.212Z,10.50
2023-02-14T23:32:55.007Z,11.07
2023-02-14T23:36:03.073Z,9.98
2023-02-14T23:39:06.637Z,9.00
2023-02-14T23:42:13.827Z,10.40
2023-02-14T23:45:34.913Z,10.25
2023-02-14T23:48:39.176Z,11.57
2023-02-14T23:51:43.024Z,10.43
2023-02-14T23:54:46.808Z,10.15
2023-02-14T23:57:49.514Z,9.43
